sensor_id;sensor_type;location;lat;lon;timestamp;P1;durP1;ratioP1;P2;durP2;ratioP2
8333;SDS011;4204;43.004;23.052;2022-10-16T00:01:41;5.63;;;4.43;;
8333;SDS011;4204;43.004;23.052;2022-10-16T00:04:10;7.73;;;5.37;;
8333;SDS011;4204;43.004;23.052;2022-10-16T00:06:38;9.60;;;5.30;;
8333;SDS011;4204;43.004;23.052;2022-10-16T00:09:06;7.73;;;5.20;;
8333;SDS011;4204;43.004;23.052;2022-10-16T00:11:35;5.70;;;4.60;;
8333;SDS011;4204;43.004;23.052;2022-10-16T00:14:07;8.43;;;4.57;;
8333;SDS011;4204;43.004;23.052;2022-10-16T00:16:37;6.63;;;4.77;;
8333;SDS011;4204;43.004;23.052;2022-10-16T00:19:05;7.03;;;5.43;;
8333;SDS011;4204;43.004;23.052;2022-10-16T00:21:34;6.40;;;4.43;;
8333;SDS011;4204;43.004;23.052;2022-10-16T00:24:20;6.93;;;5.10;;
8333;SDS011;4204;43.004;23.052;2022-10-16T00:26:49;6.70;;;4.87;;
8333;SDS011;4204;43.004;23.052;2022-10-16T00:29:17;9.63;;;4.87;;
8333;SDS011;4204;43.004;23.052;2022-10-16T00:31:44;6.60;;;4.80;;
8333;SDS011;4204;43.004;23.052;2022-10-16T00:34:12;6.10;;;5.10;;
8333;SDS011;4204;43.004;23.052;2022-10-16T00:36:41;7.53;;;4.20;;
8333;SDS011;4204;43.004;23.052;2022-10-16T00:39:09;8.60;;;5.00;;
8333;SDS011;4204;43.004;23.052;2022-10-16T00:41:36;11.73;;;4.63;;
8333;SDS011;4204;43.004;23.052;2022-10-16T00:47:05;6.90;;;4.73;;
8333;SDS011;4204;43.004;23.052;2022-10-16T00:49:35;7.07;;;4.80;;
8333;SDS011;4204;43.004;23.052;2022-10-16T00:52:04;7.70;;;5.03;;
8333;SDS011;4204;43.004;23.052;2022-10-16T00:54:32;8.50;;;5.10;;
8333;SDS011;4204;43.004;23.052;2022-10-16T00:57:01;6.83;;;4.60;;
8333;SDS011;4204;43.004;23.052;2022-10-16T00:59:33;7.33;;;4.73;;
8333;SDS011;4204;43.004;23.052;2022-10-16T01:02:02;5.53;;;4.63;;
8333;SDS011;4204;43.004;23.052;2022-10-16T01:04:32;6.07;;;4.47;;
8333;SDS011;4204;43.004;23.052;2022-10-16T01:07:06;6.23;;;4.67;;
8333;SDS011;4204;43.004;23.052;2022-10-16T01:09:44;6.13;;;4.50;;
8333;SDS011;4204;43.004;23.052;2022-10-16T01:12:21;6.00;;;4.37;;
8333;SDS011;4204;43.004;23.052;2022-10-16T01:14:58;8.37;;;4.20;;
8333;SDS011;4204;43.004;23.052;2022-10-16T01:17:31;8.50;;;4.37;;
8333;SDS011;4204;43.004;23.052;2022-10-16T01:20:08;5.77;;;4.07;;
8333;SDS011;4204;43.004;23.052;2022-10-16T01:22:46;5.37;;;4.50;;
8333;SDS011;4204;43.004;23.052;2022-10-16T01:25:23;5.47;;;4.10;;
8333;SDS011;4204;43.004;23.052;2022-10-16T01:27:58;6.40;;;4.37;;
8333;SDS011;4204;43.004;23.052;2022-10-16T01:30:29;5.07;;;3.70;;
8333;SDS011;4204;43.004;23.052;2022-10-16T01:33:00;7.00;;;4.47;;
8333;SDS011;4204;43.004;23.052;2022-10-16T01:35:32;6.20;;;4.03;;
8333;SDS011;4204;43.004;23.052;2022-10-16T01:38:05;6.27;;;4.47;;
8333;SDS011;4204;43.004;23.052;2022-10-16T01:40:37;7.33;;;4.33;;
8333;SDS011;4204;43.004;23.052;2022-10-16T01:43:11;6.67;;;4.43;;
8333;SDS011;4204;43.004;23.052;2022-10-16T01:45:42;5.77;;;4.80;;
8333;SDS011;4204;43.004;23.052;2022-10-16T01:48:12;6.23;;;4.50;;
8333;SDS011;4204;43.004;23.052;2022-10-16T01:50:43;6.67;;;4.47;;
8333;SDS011;4204;43.004;23.052;2022-10-16T01:53:15;6.60;;;5.10;;
8333;SDS011;4204;43.004;23.052;2022-10-16T01:55:44;6.73;;;4.77;;
8333;SDS011;4204;43.004;23.052;2022-10-16T01:58:16;6.37;;;4.10;;
8333;SDS011;4204;43.004;23.052;2022-10-16T02:00:44;5.80;;;4.57;;
8333;SDS011;4204;43.004;23.052;2022-10-16T02:03:14;6.27;;;4.60;;
8333;SDS011;4204;43.004;23.052;2022-10-16T02:05:46;5.13;;;4.23;;
8333;SDS011;4204;43.004;23.052;2022-10-16T02:08:16;6.70;;;4.57;;
8333;SDS011;4204;43.004;23.052;2022-10-16T02:10:44;4.90;;;4.00;;
8333;SDS011;4204;43.004;23.052;2022-10-16T02:13:13;5.83;;;4.53;;
8333;SDS011;4204;43.004;23.052;2022-10-16T02:15:48;5.30;;;4.10;;
8333;SDS011;4204;43.004;23.052;2022-10-16T02:18:15;6.83;;;4.63;;
8333;SDS011;4204;43.004;23.052;2022-10-16T02:20:45;6.20;;;4.73;;
8333;SDS011;4204;43.004;23.052;2022-10-16T02:23:19;6.43;;;4.90;;
8333;SDS011;4204;43.004;23.052;2022-10-16T02:25:51;6.27;;;4.17;;
8333;SDS011;4204;43.004;23.052;2022-10-16T02:28:26;6.40;;;4.53;;
8333;SDS011;4204;43.004;23.052;2022-10-16T02:31:01;7.87;;;5.27;;
8333;SDS011;4204;43.004;23.052;2022-10-16T02:33:31;7.63;;;5.47;;
8333;SDS011;4204;43.004;23.052;2022-10-16T02:36:00;6.97;;;5.13;;
8333;SDS011;4204;43.004;23.052;2022-10-16T02:38:28;8.77;;;5.33;;
8333;SDS011;4204;43.004;23.052;2022-10-16T02:40:57;8.83;;;5.63;;
8333;SDS011;4204;43.004;23.052;2022-10-16T02:43:27;9.50;;;5.67;;
8333;SDS011;4204;43.004;23.052;2022-10-16T02:45:54;6.77;;;5.37;;
8333;SDS011;4204;43.004;23.052;2022-10-16T02:48:22;10.43;;;5.90;;
8333;SDS011;4204;43.004;23.052;2022-10-16T02:50:50;8.97;;;5.80;;
8333;SDS011;4204;43.004;23.052;2022-10-16T02:53:18;7.37;;;5.27;;
8333;SDS011;4204;43.004;23.052;2022-10-16T02:55:45;10.00;;;5.40;;
8333;SDS011;4204;43.004;23.052;2022-10-16T02:58:13;9.20;;;6.23;;
8333;SDS011;4204;43.004;23.052;2022-10-16T03:00:43;7.40;;;5.30;;
8333;SDS011;4204;43.004;23.052;2022-10-16T03:03:10;10.00;;;5.73;;
8333;SDS011;4204;43.004;23.052;2022-10-16T03:05:38;8.00;;;5.80;;
8333;SDS011;4204;43.004;23.052;2022-10-16T03:08:05;7.70;;;5.63;;
8333;SDS011;4204;43.004;23.052;2022-10-16T03:10:33;11.10;;;6.10;;
8333;SDS011;4204;43.004;23.052;2022-10-16T03:13:01;7.43;;;5.40;;
8333;SDS011;4204;43.004;23.052;2022-10-16T03:15:28;6.73;;;5.20;;
8333;SDS011;4204;43.004;23.052;2022-10-16T03:17:58;7.30;;;5.23;;
8333;SDS011;4204;43.004;23.052;2022-10-16T03:20:26;7.17;;;5.20;;
8333;SDS011;4204;43.004;23.052;2022-10-16T03:22:53;10.43;;;6.40;;
8333;SDS011;4204;43.004;23.052;2022-10-16T03:25:22;9.33;;;5.40;;
8333;SDS011;4204;43.004;23.052;2022-10-16T03:27:50;6.77;;;4.73;;
8333;SDS011;4204;43.004;23.052;2022-10-16T03:30:17;7.10;;;5.17;;
8333;SDS011;4204;43.004;23.052;2022-10-16T03:32:45;7.47;;;5.20;;
8333;SDS011;4204;43.004;23.052;2022-10-16T03:35:14;9.17;;;5.00;;
8333;SDS011;4204;43.004;23.052;2022-10-16T03:37:42;7.40;;;4.50;;
8333;SDS011;4204;43.004;23.052;2022-10-16T03:40:09;7.30;;;4.77;;
8333;SDS011;4204;43.004;23.052;2022-10-16T03:42:38;6.27;;;4.80;;
8333;SDS011;4204;43.004;23.052;2022-10-16T03:45:05;6.33;;;4.70;;
8333;SDS011;4204;43.004;23.052;2022-10-16T03:47:33;7.43;;;5.03;;
8333;SDS011;4204;43.004;23.052;2022-10-16T03:50:01;6.63;;;4.50;;
8333;SDS011;4204;43.004;23.052;2022-10-16T03:52:31;7.10;;;5.20;;
8333;SDS011;4204;43.004;23.052;2022-10-16T03:54:59;6.03;;;4.57;;
8333;SDS011;4204;43.004;23.052;2022-10-16T03:57:26;8.03;;;5.00;;
8333;SDS011;4204;43.004;23.052;2022-10-16T03:59:54;6.53;;;4.77;;
8333;SDS011;4204;43.004;23.052;2022-10-16T04:02:22;6.23;;;4.57;;
8333;SDS011;4204;43.004;23.052;2022-10-16T04:04:49;5.87;;;4.27;;
8333;SDS011;4204;43.004;23.052;2022-10-16T04:07:17;5.83;;;4.60;;
8333;SDS011;4204;43.004;23.052;2022-10-16T04:09:46;6.13;;;4.60;;
8333;SDS011;4204;43.004;23.052;2022-10-16T04:12:14;5.77;;;4.40;;
8333;SDS011;4204;43.004;23.052;2022-10-16T04:14:41;6.77;;;4.33;;
8333;SDS011;4204;43.004;23.052;2022-10-16T04:17:09;5.00;;;4.50;;
8333;SDS011;4204;43.004;23.052;2022-10-16T04:19:37;5.93;;;4.87;;
8333;SDS011;4204;43.004;23.052;2022-10-16T04:22:04;6.50;;;4.73;;
8333;SDS011;4204;43.004;23.052;2022-10-16T04:24:32;5.50;;;4.10;;
8333;SDS011;4204;43.004;23.052;2022-10-16T04:27:01;6.27;;;4.83;;
8333;SDS011;4204;43.004;23.052;2022-10-16T04:29:29;12.33;;;4.27;;
8333;SDS011;4204;43.004;23.052;2022-10-16T04:31:56;6.53;;;4.27;;
8333;SDS011;4204;43.004;23.052;2022-10-16T04:34:24;6.60;;;4.73;;
8333;SDS011;4204;43.004;23.052;2022-10-16T04:36:52;7.13;;;4.23;;
8333;SDS011;4204;43.004;23.052;2022-10-16T04:39:19;5.87;;;4.27;;
8333;SDS011;4204;43.004;23.052;2022-10-16T04:41:47;9.17;;;5.30;;
8333;SDS011;4204;43.004;23.052;2022-10-16T04:44:18;7.23;;;4.20;;
8333;SDS011;4204;43.004;23.052;2022-10-16T04:46:49;6.70;;;4.60;;
8333;SDS011;4204;43.004;23.052;2022-10-16T04:49:17;6.13;;;4.33;;
8333;SDS011;4204;43.004;23.052;2022-10-16T04:51:45;5.70;;;4.67;;
8333;SDS011;4204;43.004;23.052;2022-10-16T04:54:12;7.93;;;5.03;;
8333;SDS011;4204;43.004;23.052;2022-10-16T04:56:40;9.43;;;5.00;;
8333;SDS011;4204;43.004;23.052;2022-10-16T04:59:13;6.17;;;4.50;;
8333;SDS011;4204;43.004;23.052;2022-10-16T05:01:42;18.87;;;9.87;;
8333;SDS011;4204;43.004;23.052;2022-10-16T05:04:10;34.67;;;17.57;;
8333;SDS011;4204;43.004;23.052;2022-10-16T05:06:38;24.77;;;13.60;;
8333;SDS011;4204;43.004;23.052;2022-10-16T05:09:05;13.50;;;7.33;;
8333;SDS011;4204;43.004;23.052;2022-10-16T05:11:33;6.63;;;4.83;;
8333;SDS011;4204;43.004;23.052;2022-10-16T05:14:02;7.97;;;5.80;;
8333;SDS011;4204;43.004;23.052;2022-10-16T05:16:29;7.67;;;5.63;;
8333;SDS011;4204;43.004;23.052;2022-10-16T05:18:59;8.67;;;5.87;;
8333;SDS011;4204;43.004;23.052;2022-10-16T05:21:27;9.53;;;6.17;;
8333;SDS011;4204;43.004;23.052;2022-10-16T05:23:54;10.30;;;6.60;;
8333;SDS011;4204;43.004;23.052;2022-10-16T05:26:22;17.13;;;11.83;;
8333;SDS011;4204;43.004;23.052;2022-10-16T05:28:50;13.73;;;8.33;;
8333;SDS011;4204;43.004;23.052;2022-10-16T05:31:18;14.80;;;7.57;;
8333;SDS011;4204;43.004;23.052;2022-10-16T05:33:45;8.43;;;6.10;;
8333;SDS011;4204;43.004;23.052;2022-10-16T05:36:15;8.30;;;5.20;;
8333;SDS011;4204;43.004;23.052;2022-10-16T05:38:44;8.93;;;5.20;;
8333;SDS011;4204;43.004;23.052;2022-10-16T05:41:11;7.43;;;4.90;;
8333;SDS011;4204;43.004;23.052;2022-10-16T05:43:39;8.70;;;5.27;;
8333;SDS011;4204;43.004;23.052;2022-10-16T05:46:07;7.53;;;5.03;;
8333;SDS011;4204;43.004;23.052;2022-10-16T05:48:34;7.90;;;4.80;;
8333;SDS011;4204;43.004;23.052;2022-10-16T05:51:02;9.17;;;4.53;;
8333;SDS011;4204;43.004;23.052;2022-10-16T05:53:35;6.50;;;4.40;;
8333;SDS011;4204;43.004;23.052;2022-10-16T05:56:03;6.80;;;4.50;;
8333;SDS011;4204;43.004;23.052;2022-10-16T05:58:33;6.37;;;4.90;;
8333;SDS011;4204;43.004;23.052;2022-10-16T06:01:04;8.00;;;5.50;;
8333;SDS011;4204;43.004;23.052;2022-10-16T06:03:34;8.83;;;5.67;;
8333;SDS011;4204;43.004;23.052;2022-10-16T06:06:06;8.33;;;5.53;;
8333;SDS011;4204;43.004;23.052;2022-10-16T06:08:36;8.77;;;6.27;;
8333;SDS011;4204;43.004;23.052;2022-10-16T06:11:05;9.00;;;6.30;;
8333;SDS011;4204;43.004;23.052;2022-10-16T06:13:34;7.17;;;6.40;;
8333;SDS011;4204;43.004;23.052;2022-10-16T06:16:02;9.87;;;6.63;;
8333;SDS011;4204;43.004;23.052;2022-10-16T06:18:31;9.67;;;7.00;;
8333;SDS011;4204;43.004;23.052;2022-10-16T06:20:59;11.17;;;7.07;;
8333;SDS011;4204;43.004;23.052;2022-10-16T06:23:28;11.27;;;7.77;;
8333;SDS011;4204;43.004;23.052;2022-10-16T06:26:05;11.97;;;7.10;;
8333;SDS011;4204;43.004;23.052;2022-10-16T06:28:34;11.13;;;7.50;;
8333;SDS011;4204;43.004;23.052;2022-10-16T06:31:02;12.70;;;8.87;;
8333;SDS011;4204;43.004;23.052;2022-10-16T06:33:31;7.97;;;6.57;;
8333;SDS011;4204;43.004;23.052;2022-10-16T06:36:02;9.10;;;7.10;;
8333;SDS011;4204;43.004;23.052;2022-10-16T06:38:31;12.70;;;7.17;;
8333;SDS011;4204;43.004;23.052;2022-10-16T06:40:59;10.17;;;7.53;;
8333;SDS011;4204;43.004;23.052;2022-10-16T06:43:29;9.70;;;7.43;;
8333;SDS011;4204;43.004;23.052;2022-10-16T06:45:58;7.93;;;6.13;;
8333;SDS011;4204;43.004;23.052;2022-10-16T06:48:27;10.13;;;6.07;;
8333;SDS011;4204;43.004;23.052;2022-10-16T06:50:56;8.00;;;6.00;;
8333;SDS011;4204;43.004;23.052;2022-10-16T06:53:25;6.47;;;5.27;;
8333;SDS011;4204;43.004;23.052;2022-10-16T06:55:54;7.10;;;5.70;;
8333;SDS011;4204;43.004;23.052;2022-10-16T06:58:22;8.63;;;5.20;;
8333;SDS011;4204;43.004;23.052;2022-10-16T07:00:56;7.23;;;4.77;;
8333;SDS011;4204;43.004;23.052;2022-10-16T07:03:23;7.47;;;4.53;;
8333;SDS011;4204;43.004;23.052;2022-10-16T07:05:51;7.47;;;4.60;;
8333;SDS011;4204;43.004;23.052;2022-10-16T07:08:19;6.57;;;4.40;;
8333;SDS011;4204;43.004;23.052;2022-10-16T07:10:47;6.33;;;4.20;;
8333;SDS011;4204;43.004;23.052;2022-10-16T07:13:14;5.57;;;4.57;;
8333;SDS011;4204;43.004;23.052;2022-10-16T07:15:42;5.40;;;4.30;;
8333;SDS011;4204;43.004;23.052;2022-10-16T07:18:11;6.33;;;4.50;;
8333;SDS011;4204;43.004;23.052;2022-10-16T07:20:39;5.77;;;4.30;;
8333;SDS011;4204;43.004;23.052;2022-10-16T07:23:07;5.33;;;3.93;;
8333;SDS011;4204;43.004;23.052;2022-10-16T07:25:36;6.27;;;4.40;;
8333;SDS011;4204;43.004;23.052;2022-10-16T07:28:04;6.80;;;4.40;;
8333;SDS011;4204;43.004;23.052;2022-10-16T07:30:34;5.13;;;4.10;;
8333;SDS011;4204;43.004;23.052;2022-10-16T07:33:02;6.33;;;4.00;;
8333;SDS011;4204;43.004;23.052;2022-10-16T07:35:31;5.80;;;4.30;;
8333;SDS011;4204;43.004;23.052;2022-10-16T07:37:59;5.47;;;4.20;;
8333;SDS011;4204;43.004;23.052;2022-10-16T07:40:27;6.00;;;4.03;;
8333;SDS011;4204;43.004;23.052;2022-10-16T07:42:54;9.47;;;4.60;;
8333;SDS011;4204;43.004;23.052;2022-10-16T07:45:22;5.53;;;3.53;;
8333;SDS011;4204;43.004;23.052;2022-10-16T07:47:50;7.73;;;3.90;;
8333;SDS011;4204;43.004;23.052;2022-10-16T07:50:17;4.77;;;3.63;;
8333;SDS011;4204;43.004;23.052;2022-10-16T07:52:46;5.83;;;3.40;;
8333;SDS011;4204;43.004;23.052;2022-10-16T07:55:14;5.83;;;3.73;;
8333;SDS011;4204;43.004;23.052;2022-10-16T07:57:42;7.67;;;3.80;;
8333;SDS011;4204;43.004;23.052;2022-10-16T08:00:10;5.50;;;3.60;;
8333;SDS011;4204;43.004;23.052;2022-10-16T08:02:40;4.10;;;3.57;;
8333;SDS011;4204;43.004;23.052;2022-10-16T08:05:08;4.57;;;3.30;;
8333;SDS011;4204;43.004;23.052;2022-10-16T08:07:37;5.00;;;3.80;;
8333;SDS011;4204;43.004;23.052;2022-10-16T08:10:06;5.17;;;3.50;;
8333;SDS011;4204;43.004;23.052;2022-10-16T08:12:38;4.67;;;3.83;;
8333;SDS011;4204;43.004;23.052;2022-10-16T08:15:06;5.23;;;3.60;;
8333;SDS011;4204;43.004;23.052;2022-10-16T08:17:35;4.63;;;3.70;;
8333;SDS011;4204;43.004;23.052;2022-10-16T08:20:03;5.70;;;4.10;;
8333;SDS011;4204;43.004;23.052;2022-10-16T08:22:31;4.47;;;3.50;;
8333;SDS011;4204;43.004;23.052;2022-10-16T08:24:58;6.67;;;3.13;;
8333;SDS011;4204;43.004;23.052;2022-10-16T08:27:31;5.80;;;4.17;;
8333;SDS011;4204;43.004;23.052;2022-10-16T08:29:59;3.80;;;3.23;;
8333;SDS011;4204;43.004;23.052;2022-10-16T08:32:27;7.43;;;3.77;;
8333;SDS011;4204;43.004;23.052;2022-10-16T08:34:54;5.57;;;3.90;;
8333;SDS011;4204;43.004;23.052;2022-10-16T08:37:22;6.53;;;4.23;;
8333;SDS011;4204;43.004;23.052;2022-10-16T08:39:50;5.27;;;3.47;;
8333;SDS011;4204;43.004;23.052;2022-10-16T08:42:23;5.07;;;3.70;;
8333;SDS011;4204;43.004;23.052;2022-10-16T08:48:05;5.43;;;3.60;;
8333;SDS011;4204;43.004;23.052;2022-10-16T08:50:42;4.67;;;3.67;;
8333;SDS011;4204;43.004;23.052;2022-10-16T08:53:11;5.47;;;3.53;;
8333;SDS011;4204;43.004;23.052;2022-10-16T08:55:45;3.63;;;3.30;;
8333;SDS011;4204;43.004;23.052;2022-10-16T08:58:18;3.93;;;3.53;;
8333;SDS011;4204;43.004;23.052;2022-10-16T09:00:48;5.80;;;3.37;;
8333;SDS011;4204;43.004;23.052;2022-10-16T09:03:30;7.23;;;4.10;;
8333;SDS011;4204;43.004;23.052;2022-10-16T09:06:17;4.30;;;3.53;;
8333;SDS011;4204;43.004;23.052;2022-10-16T09:09:01;4.13;;;3.30;;
8333;SDS011;4204;43.004;23.052;2022-10-16T09:11:48;4.70;;;3.37;;
8333;SDS011;4204;43.004;23.052;2022-10-16T09:14:39;4.87;;;3.40;;
8333;SDS011;4204;43.004;23.052;2022-10-16T09:17:23;3.70;;;3.17;;
8333;SDS011;4204;43.004;23.052;2022-10-16T09:20:03;7.20;;;3.57;;
8333;SDS011;4204;43.004;23.052;2022-10-16T09:22:40;4.77;;;2.97;;
8333;SDS011;4204;43.004;23.052;2022-10-16T09:25:10;4.97;;;3.60;;
8333;SDS011;4204;43.004;23.052;2022-10-16T09:27:39;4.30;;;3.30;;
8333;SDS011;4204;43.004;23.052;2022-10-16T09:30:14;3.83;;;3.40;;
8333;SDS011;4204;43.004;23.052;2022-10-16T09:32:43;4.10;;;3.27;;
8333;SDS011;4204;43.004;23.052;2022-10-16T09:35:14;4.63;;;2.83;;
8333;SDS011;4204;43.004;23.052;2022-10-16T09:37:45;3.87;;;3.00;;
8333;SDS011;4204;43.004;23.052;2022-10-16T09:40:23;3.40;;;2.83;;
8333;SDS011;4204;43.004;23.052;2022-10-16T09:42:52;3.50;;;3.17;;
8333;SDS011;4204;43.004;23.052;2022-10-16T09:45:26;3.60;;;3.30;;
8333;SDS011;4204;43.004;23.052;2022-10-16T09:47:54;4.17;;;3.20;;
8333;SDS011;4204;43.004;23.052;2022-10-16T09:50:25;3.57;;;2.90;;
8333;SDS011;4204;43.004;23.052;2022-10-16T09:53:04;3.67;;;3.00;;
8333;SDS011;4204;43.004;23.052;2022-10-16T09:55:33;3.80;;;3.20;;
8333;SDS011;4204;43.004;23.052;2022-10-16T09:58:00;3.30;;;2.90;;
8333;SDS011;4204;43.004;23.052;2022-10-16T10:00:29;3.53;;;2.83;;
8333;SDS011;4204;43.004;23.052;2022-10-16T10:02:58;5.67;;;3.00;;
8333;SDS011;4204;43.004;23.052;2022-10-16T10:05:27;3.97;;;3.43;;
8333;SDS011;4204;43.004;23.052;2022-10-16T10:07:56;5.20;;;3.20;;
8333;SDS011;4204;43.004;23.052;2022-10-16T10:10:26;3.50;;;2.90;;
8333;SDS011;4204;43.004;23.052;2022-10-16T10:12:55;4.47;;;3.07;;
8333;SDS011;4204;43.004;23.052;2022-10-16T10:15:24;3.53;;;2.90;;
8333;SDS011;4204;43.004;23.052;2022-10-16T10:17:55;4.13;;;2.93;;
8333;SDS011;4204;43.004;23.052;2022-10-16T10:20:25;3.10;;;2.77;;
8333;SDS011;4204;43.004;23.052;2022-10-16T10:22:54;3.47;;;2.80;;
8333;SDS011;4204;43.004;23.052;2022-10-16T10:25:35;3.60;;;3.17;;
8333;SDS011;4204;43.004;23.052;2022-10-16T10:28:21;4.07;;;2.70;;
8333;SDS011;4204;43.004;23.052;2022-10-16T10:31:03;3.77;;;2.87;;
8333;SDS011;4204;43.004;23.052;2022-10-16T10:33:41;3.20;;;2.50;;
8333;SDS011;4204;43.004;23.052;2022-10-16T10:36:21;3.30;;;2.97;;
8333;SDS011;4204;43.004;23.052;2022-10-16T10:38:56;3.63;;;2.73;;
8333;SDS011;4204;43.004;23.052;2022-10-16T10:41:34;7.30;;;2.70;;
8333;SDS011;4204;43.004;23.052;2022-10-16T10:44:26;5.83;;;3.60;;
8333;SDS011;4204;43.004;23.052;2022-10-16T10:47:05;4.03;;;2.70;;
8333;SDS011;4204;43.004;23.052;2022-10-16T10:49:50;3.40;;;2.60;;
8333;SDS011;4204;43.004;23.052;2022-10-16T10:52:31;2.80;;;2.53;;
8333;SDS011;4204;43.004;23.052;2022-10-16T10:55:10;3.00;;;2.70;;
8333;SDS011;4204;43.004;23.052;2022-10-16T10:57:52;3.60;;;2.97;;
8333;SDS011;4204;43.004;23.052;2022-10-16T11:00:34;8.00;;;6.20;;
8333;SDS011;4204;43.004;23.052;2022-10-16T11:03:13;3.80;;;3.07;;
8333;SDS011;4204;43.004;23.052;2022-10-16T11:05:56;2.77;;;2.53;;
8333;SDS011;4204;43.004;23.052;2022-10-16T11:08:32;3.83;;;3.00;;
8333;SDS011;4204;43.004;23.052;2022-10-16T11:11:05;3.70;;;2.73;;
8333;SDS011;4204;43.004;23.052;2022-10-16T11:13:40;3.37;;;2.53;;
8333;SDS011;4204;43.004;23.052;2022-10-16T11:16:16;3.17;;;2.53;;
8333;SDS011;4204;43.004;23.052;2022-10-16T11:18:49;8.03;;;5.90;;
8333;SDS011;4204;43.004;23.052;2022-10-16T11:21:23;14.40;;;9.83;;
8333;SDS011;4204;43.004;23.052;2022-10-16T11:23:53;15.17;;;6.60;;
8333;SDS011;4204;43.004;23.052;2022-10-16T11:26:24;5.73;;;3.63;;
8333;SDS011;4204;43.004;23.052;2022-10-16T11:28:55;3.70;;;2.93;;
8333;SDS011;4204;43.004;23.052;2022-10-16T11:31:27;4.07;;;2.50;;
8333;SDS011;4204;43.004;23.052;2022-10-16T11:34:01;2.70;;;2.40;;
8333;SDS011;4204;43.004;23.052;2022-10-16T11:36:38;3.43;;;2.37;;
8333;SDS011;4204;43.004;23.052;2022-10-16T11:39:11;3.77;;;2.43;;
8333;SDS011;4204;43.004;23.052;2022-10-16T11:41:47;4.47;;;2.60;;
8333;SDS011;4204;43.004;23.052;2022-10-16T11:44:20;2.77;;;2.47;;
8333;SDS011;4204;43.004;23.052;2022-10-16T11:47:01;4.00;;;2.50;;
8333;SDS011;4204;43.004;23.052;2022-10-16T11:49:39;3.10;;;2.53;;
8333;SDS011;4204;43.004;23.052;2022-10-16T11:52:12;2.90;;;2.60;;
8333;SDS011;4204;43.004;23.052;2022-10-16T11:54:45;3.30;;;2.80;;
8333;SDS011;4204;43.004;23.052;2022-10-16T11:57:17;4.17;;;2.57;;
8333;SDS011;4204;43.004;23.052;2022-10-16T11:59:52;4.47;;;2.30;;
8333;SDS011;4204;43.004;23.052;2022-10-16T12:02:44;2.63;;;2.43;;
8333;SDS011;4204;43.004;23.052;2022-10-16T12:05:22;3.00;;;2.60;;
8333;SDS011;4204;43.004;23.052;2022-10-16T12:08:01;2.93;;;2.60;;
8333;SDS011;4204;43.004;23.052;2022-10-16T12:10:35;3.30;;;2.70;;
8333;SDS011;4204;43.004;23.052;2022-10-16T12:13:04;2.87;;;2.60;;
8333;SDS011;4204;43.004;23.052;2022-10-16T12:15:33;2.90;;;2.40;;
8333;SDS011;4204;43.004;23.052;2022-10-16T12:18:01;3.30;;;2.77;;
8333;SDS011;4204;43.004;23.052;2022-10-16T12:20:29;3.50;;;2.50;;
8333;SDS011;4204;43.004;23.052;2022-10-16T12:22:59;3.20;;;2.90;;
8333;SDS011;4204;43.004;23.052;2022-10-16T12:25:31;3.03;;;2.73;;
8333;SDS011;4204;43.004;23.052;2022-10-16T12:28:01;2.83;;;2.50;;
8333;SDS011;4204;43.004;23.052;2022-10-16T12:30:32;3.07;;;2.70;;
8333;SDS011;4204;43.004;23.052;2022-10-16T12:33:02;4.03;;;2.60;;
8333;SDS011;4204;43.004;23.052;2022-10-16T12:35:33;3.77;;;2.80;;
8333;SDS011;4204;43.004;23.052;2022-10-16T12:38:18;3.97;;;2.63;;
8333;SDS011;4204;43.004;23.052;2022-10-16T12:40:54;3.67;;;2.50;;
8333;SDS011;4204;43.004;23.052;2022-10-16T12:43:26;4.47;;;3.20;;
8333;SDS011;4204;43.004;23.052;2022-10-16T12:46:03;3.17;;;2.70;;
8333;SDS011;4204;43.004;23.052;2022-10-16T12:48:32;3.03;;;2.63;;
8333;SDS011;4204;43.004;23.052;2022-10-16T12:51:09;3.00;;;2.70;;
8333;SDS011;4204;43.004;23.052;2022-10-16T12:53:39;3.03;;;2.53;;
8333;SDS011;4204;43.004;23.052;2022-10-16T12:56:09;3.77;;;2.50;;
8333;SDS011;4204;43.004;23.052;2022-10-16T12:58:50;4.00;;;2.50;;
8333;SDS011;4204;43.004;23.052;2022-10-16T13:01:31;4.97;;;2.80;;
8333;SDS011;4204;43.004;23.052;2022-10-16T13:04:14;4.00;;;2.97;;
8333;SDS011;4204;43.004;23.052;2022-10-16T13:07:03;3.23;;;2.60;;
8333;SDS011;4204;43.004;23.052;2022-10-16T13:09:52;2.37;;;2.17;;
8333;SDS011;4204;43.004;23.052;2022-10-16T13:12:36;2.93;;;2.60;;
8333;SDS011;4204;43.004;23.052;2022-10-16T13:15:17;3.83;;;2.30;;
8333;SDS011;4204;43.004;23.052;2022-10-16T13:17:56;3.40;;;2.50;;
8333;SDS011;4204;43.004;23.052;2022-10-16T13:20:34;3.40;;;2.50;;
8333;SDS011;4204;43.004;23.052;2022-10-16T13:23:08;4.17;;;2.40;;
8333;SDS011;4204;43.004;23.052;2022-10-16T13:25:47;3.20;;;2.47;;
8333;SDS011;4204;43.004;23.052;2022-10-16T13:28:27;3.10;;;2.60;;
8333;SDS011;4204;43.004;23.052;2022-10-16T13:30:58;2.63;;;2.40;;
8333;SDS011;4204;43.004;23.052;2022-10-16T13:33:30;3.77;;;2.80;;
8333;SDS011;4204;43.004;23.052;2022-10-16T13:36:01;2.97;;;2.67;;
8333;SDS011;4204;43.004;23.052;2022-10-16T13:38:30;3.53;;;2.33;;
8333;SDS011;4204;43.004;23.052;2022-10-16T13:41:00;2.53;;;2.33;;
8333;SDS011;4204;43.004;23.052;2022-10-16T13:43:32;2.90;;;2.37;;
8333;SDS011;4204;43.004;23.052;2022-10-16T13:46:03;2.60;;;2.10;;
8333;SDS011;4204;43.004;23.052;2022-10-16T13:48:33;3.10;;;2.37;;
8333;SDS011;4204;43.004;23.052;2022-10-16T13:51:03;2.40;;;2.20;;
8333;SDS011;4204;43.004;23.052;2022-10-16T13:53:33;3.00;;;2.67;;
8333;SDS011;4204;43.004;23.052;2022-10-16T13:56:04;2.67;;;2.30;;
8333;SDS011;4204;43.004;23.052;2022-10-16T13:58:34;2.70;;;2.20;;
8333;SDS011;4204;43.004;23.052;2022-10-16T14:01:02;2.70;;;2.27;;
8333;SDS011;4204;43.004;23.052;2022-10-16T14:03:32;2.83;;;2.50;;
8333;SDS011;4204;43.004;23.052;2022-10-16T14:06:03;3.57;;;2.93;;
8333;SDS011;4204;43.004;23.052;2022-10-16T14:08:34;2.73;;;2.30;;
8333;SDS011;4204;43.004;23.052;2022-10-16T14:11:04;3.97;;;2.50;;
8333;SDS011;4204;43.004;23.052;2022-10-16T14:13:34;6.30;;;2.83;;
8333;SDS011;4204;43.004;23.052;2022-10-16T14:16:06;3.17;;;2.70;;
8333;SDS011;4204;43.004;23.052;2022-10-16T14:18:36;3.23;;;2.73;;
8333;SDS011;4204;43.004;23.052;2022-10-16T14:21:06;3.60;;;2.60;;
8333;SDS011;4204;43.004;23.052;2022-10-16T14:23:39;4.60;;;3.00;;
8333;SDS011;4204;43.004;23.052;2022-10-16T14:26:16;4.97;;;3.03;;
8333;SDS011;4204;43.004;23.052;2022-10-16T14:28:46;3.90;;;3.50;;
8333;SDS011;4204;43.004;23.052;2022-10-16T14:36:53;3.67;;;3.37;;
8333;SDS011;4204;43.004;23.052;2022-10-16T14:39:21;4.60;;;3.23;;
8333;SDS011;4204;43.004;23.052;2022-10-16T14:41:54;4.30;;;3.63;;
8333;SDS011;4204;43.004;23.052;2022-10-16T14:44:26;5.60;;;3.60;;
8333;SDS011;4204;43.004;23.052;2022-10-16T14:46:57;3.60;;;3.20;;
8333;SDS011;4204;43.004;23.052;2022-10-16T14:49:26;3.83;;;3.33;;
8333;SDS011;4204;43.004;23.052;2022-10-16T14:51:54;5.67;;;3.70;;
8333;SDS011;4204;43.004;23.052;2022-10-16T14:54:22;8.83;;;6.67;;
8333;SDS011;4204;43.004;23.052;2022-10-16T14:56:51;4.77;;;4.27;;
8333;SDS011;4204;43.004;23.052;2022-10-16T14:59:23;6.93;;;4.90;;
8333;SDS011;4204;43.004;23.052;2022-10-16T15:01:52;5.03;;;3.73;;
8333;SDS011;4204;43.004;23.052;2022-10-16T15:04:20;6.20;;;4.40;;
8333;SDS011;4204;43.004;23.052;2022-10-16T15:06:48;5.37;;;4.40;;
8333;SDS011;4204;43.004;23.052;2022-10-16T15:09:16;5.37;;;4.00;;
8333;SDS011;4204;43.004;23.052;2022-10-16T15:11:44;6.67;;;3.63;;
8333;SDS011;4204;43.004;23.052;2022-10-16T15:14:13;7.83;;;3.87;;
8333;SDS011;4204;43.004;23.052;2022-10-16T15:16:41;4.47;;;3.53;;
8333;SDS011;4204;43.004;23.052;2022-10-16T15:19:09;5.23;;;3.93;;
8333;SDS011;4204;43.004;23.052;2022-10-16T15:21:37;5.70;;;3.93;;
8333;SDS011;4204;43.004;23.052;2022-10-16T15:24:05;5.67;;;3.97;;
8333;SDS011;4204;43.004;23.052;2022-10-16T15:26:38;4.33;;;3.63;;
8333;SDS011;4204;43.004;23.052;2022-10-16T15:29:06;4.70;;;3.70;;
8333;SDS011;4204;43.004;23.052;2022-10-16T15:31:35;6.83;;;3.90;;
8333;SDS011;4204;43.004;23.052;2022-10-16T15:34:04;4.57;;;3.67;;
8333;SDS011;4204;43.004;23.052;2022-10-16T15:36:33;5.00;;;4.10;;